Walsenburg, Colorado
Current Conditions -  °F | °C
As of 7:08 AM on Thursday 18 Dec 2014 (Local Time) from KVTP Reporting Station
Haze Haze  
Wind Chill: -14°   Ceiling: 100
Heat Index: -7°   Visibility: 1.7mi
Dew Point: -9°   Wind: 14mph
Humidity: 86%   Direction: 210°SSW
Pressure: 30.01"   Gusts: 23mph
Location:  37.62°N, 104.78°W
Report Text: KVTP 181408Z AUTO 21012G20KT 140V260 1 3/4SM BR OVC001 M07/M09 A3001 RMK AO2
Loading
Personal Weather Stations






























Interactive Weather Map New forecast layout! Learn more

10-Day Weather Forecast

Advertisements
Track Severe Weather on mobile